Aviation Digital Data Service (ADDS)

Output produced by METARs form (2214 UTC 24 March 2019)
found at http://www.aviationweather.gov/metar/data/
 
EEEI 241650Z 24014KT CAVOK 04/M03 Q1008 R24/190095 NOSIG
TAF EEEI 241730Z 2418/2518 25012KT CAVOK 
     BECMG 2503/2505 BKN008 
     PROB40 
     TEMPO 2509/2514 4000 DZ BR OVC003 
     BECMG 2514/2516 32010KT 9999 NSW FEW015
       
TAF EEKA 241300Z 2414/2420 25014G25KT CAVOK
       
EEKE 242150Z AUTO 25008KT 200V290 9999NDV NSC 03/02 Q1009
TAF EEKE 241500Z 2416/2422 25014G24KT CAVOK
       
EETN 242150Z 22004KT CAVOK 01/M02 Q1006 R08/15//95 NOSIG
TAF EETN 241700Z 2418/2518 25014KT CAVOK 
     PROB40 
     TEMPO 2423/2506 24004KT 2000 BR BKN003 
     TEMPO 2506/2515 4000 SHRASN BKN008 SCT015CB 
     BECMG 2510/2512 32010KT
       
EETU 242150Z 24012KT CAVOK 01/M03 Q1007
TAF EETU 242100Z 2422/2504 25012KT CAVOK 
     PROB40 
     TEMPO 2500/2504 2000 BR BKN003